Time;durP1;ratioP1;P1;durP2;ratioP2;P2;SDS_P1;SDS_P2;PMS_P1;PMS_P2;Temp;Humidity;BMP_temperature;BMP_pressure;BME280_temperature;BME280_humidity;BME280_pressure;Samples;Min_cycle;Max_cycle;Signal;HPM_P1;HPM_P2
2023/09/10 00:03:52;;;;;;;21;18.4;;;;;;;15.13;89.39;;;;;
2023/09/10 00:14:52;;;;;;;18.9;15.8;;;;;;;15.01;90.39;;;;;
2023/09/10 00:25:52;;;;;;;18.9;15.8;;;;;;;14.97;90.52;;;;;
2023/09/10 00:36:52;;;;;;;21.7;17.8;;;;;;;14.94;90.08;;;;;
2023/09/10 00:46:52;;;;;;;21.7;17.8;;;;;;;14.84;90.27;;;;;
2023/09/10 00:57:52;;;;;;;21.7;17.8;;;;;;;14.77;90.2;;;;;
2023/09/10 01:07:52;;;;;;;20.2;17.4;;;;;;;14.64;90.37;;;;;
2023/09/10 01:18:52;;;;;;;20.2;17.4;;;;;;;14.52;91.48;;;;;
2023/09/10 01:29:52;;;;;;;20.2;17.4;;;;;;;14.55;91.6;;;;;
2023/09/10 01:39:52;;;;;;;17;15.2;;;;;;;14.54;91.45;;;;;
2023/09/10 01:50:52;;;;;;;17;15.2;;;;;;;14.49;90.93;;;;;
2023/09/10 02:01:52;;;;;;;17;15.2;;;;;;;14.4;90.56;;;;;
2023/09/10 02:12:52;;;;;;;19.6;15.9;;;;;;;14.32;90.33;;;;;
2023/09/10 02:22:52;;;;;;;19.6;15.9;;;;;;;14.28;90.65;;;;;
2023/09/10 02:32:52;;;;;;;19.6;15.9;;;;;;;14.27;91.31;;;;;
2023/09/10 02:42:53;;;;;;;17.7;15.3;;;;;;;14.19;91.21;;;;;
2023/09/10 02:53:52;;;;;;;17.7;15.3;;;;;;;14.11;90.79;;;;;
2023/09/10 03:03:52;;;;;;;17.7;15.3;;;;;;;14.03;90.57;;;;;
2023/09/10 03:14:52;;;;;;;18.1;14;;;;;;;14.03;91.14;;;;;
2023/09/10 03:24:52;;;;;;;18.1;14;;;;;;;13.98;91.39;;;;;
2023/09/10 03:35:52;;;;;;;17.4;12.2;;;;;;;13.92;91.22;;;;;
2023/09/10 03:46:53;;;;;;;17.4;12.2;;;;;;;13.82;91.08;;;;;
2023/09/10 03:56:52;;;;;;;17.4;12.2;;;;;;;13.82;91.04;;;;;
2023/09/10 04:06:52;;;;;;;16.8;12;;;;;;;13.75;90.63;;;;;
2023/09/10 04:17:53;;;;;;;16.8;12;;;;;;;13.73;90.75;;;;;
2023/09/10 04:27:52;;;;;;;16.8;12;;;;;;;13.82;90.75;;;;;
2023/09/10 04:37:52;;;;;;;15.3;13.5;;;;;;;13.82;90.56;;;;;
2023/09/10 04:47:52;;;;;;;15.3;13.5;;;;;;;13.91;91.9;;;;;
2023/09/10 04:57:52;;;;;;;15.3;13.5;;;;;;;14.2;91.75;;;;;
2023/09/10 05:08:52;;;;;;;16.6;14.4;;;;;;;14.62;91.76;;;;;
2023/09/10 05:18:52;;;;;;;16.6;14.4;;;;;;;14.96;91.91;;;;;
2023/09/10 05:29:52;;;;;;;16.6;14.4;;;;;;;15.51;91.71;;;;;
2023/09/10 05:39:52;;;;;;;21.3;17.2;;;;;;;15.98;91.2;;;;;
2023/09/10 05:50:52;;;;;;;;;;;;;;;;;;;;;
2023/09/10 06:01:52;;;;;;;21.3;17.2;;;;;;;16.95;89.22;;;;;
2023/09/10 06:11:52;;;;;;;22.4;16;;;;;;;17.27;88.41;;;;;
2023/09/10 06:21:52;;;;;;;22.4;16;;;;;;;17.55;87.68;;;;;
2023/09/10 06:32:52;;;;;;;22.4;16;;;;;;;18.11;87;;;;;
2023/09/10 06:43:52;;;;;;;19.9;15.3;;;;;;;18.42;86.21;;;;;
2023/09/10 06:53:52;;;;;;;19.9;15.3;;;;;;;18.82;84.75;;;;;
2023/09/10 07:03:52;;;;;;;19.9;15.3;;;;;;;19.31;84.57;;;;;
2023/09/10 07:14:52;;;;;;;20.6;15.4;;;;;;;19.7;83.84;;;;;
2023/09/10 07:24:52;;;;;;;20.6;15.4;;;;;;;20.2;82.28;;;;;
2023/09/10 07:34:53;;;;;;;20.6;15.4;;;;;;;20.48;80.97;;;;;
2023/09/10 07:45:52;;;;;;;16.4;13.3;;;;;;;20.8;79.13;;;;;
2023/09/10 07:56:52;;;;;;;16.4;13.3;;;;;;;21.32;78.63;;;;;
2023/09/10 08:06:53;;;;;;;14.9;11.9;;;;;;;21.85;77.31;;;;;
2023/09/10 08:16:52;;;;;;;14.9;11.9;;;;;;;22.26;75.83;;;;;
2023/09/10 08:26:52;;;;;;;14.9;11.9;;;;;;;22.72;74.39;;;;;
2023/09/10 08:36:53;;;;;;;11.8;9.3;;;;;;;23.22;72.45;;;;;
2023/09/10 08:47:52;;;;;;;11.8;9.3;;;;;;;23.62;71.52;;;;;
2023/09/10 08:58:53;;;;;;;11.8;9.3;;;;;;;23.97;68.69;;;;;
2023/09/10 09:09:52;;;;;;;;;;;;;;;;;;;;;
2023/09/10 09:20:53;;;;;;;11;8.6;;;;;;;24.4;69;;;;;
2023/09/10 09:31:53;;;;;;;;;;;;;;;;;;;;;
2023/09/10 09:42:54;;;;;;;;;;;;;;;;;;;;;
2023/09/10 09:53:53;;;;;;;;;;;;;;;;;;;;;
2023/09/10 10:03:53;;;;;;;;;;;;;;;;;;;;;
2023/09/10 10:13:53;;;;;;;;;;;;;;;;;;;;;
2023/09/10 10:24:53;;;;;;;11.9;9.6;;;;;;;26.35;58.07;;;;;
2023/09/10 10:34:53;;;;;;;11.9;9.6;;;;;;;26.6;58.35;;;;;
2023/09/10 10:44:53;;;;;;;11.9;9.6;;;;;;;26.76;56.37;;;;;
2023/09/10 10:54:53;;;;;;;11.6;8.9;;;;;;;26.91;56.19;;;;;
2023/09/10 11:05:53;;;;;;;11.6;8.9;;;;;;;27.12;54.69;;;;;
2023/09/10 11:15:53;;;;;;;11.6;8.9;;;;;;;27.24;52.75;;;;;
2023/09/10 11:25:53;;;;;;;9.2;6.5;;;;;;;27.09;53.2;;;;;
2023/09/10 11:36:54;;;;;;;9.2;6.5;;;;;;;27.55;51.06;;;;;
2023/09/10 11:47:53;;;;;;;10.1;6.3;;;;;;;27.57;48.59;;;;;
2023/09/10 11:57:53;;;;;;;10.1;6.3;;;;;;;27.84;51.22;;;;;
2023/09/10 12:07:53;;;;;;;10.1;6.3;;;;;;;28.05;53.49;;;;;
2023/09/10 12:18:53;;;;;;;11.3;5.6;;;;;;;28;48.57;;;;;
2023/09/10 12:29:53;;;;;;;11.3;5.6;;;;;;;28.4;48.76;;;;;
2023/09/10 12:39:53;;;;;;;11.3;5.6;;;;;;;28.17;50.25;;;;;
2023/09/10 12:49:53;;;;;;;8.6;5.6;;;;;;;28.54;49.2;;;;;
2023/09/10 13:00:53;;;;;;;8.6;5.6;;;;;;;28.37;48.54;;;;;
2023/09/10 13:10:53;;;;;;;8.6;5.6;;;;;;;28.59;49.95;;;;;
2023/09/10 13:21:53;;;;;;;7.5;5.3;;;;;;;28.69;47.65;;;;;
2023/09/10 13:32:53;;;;;;;7.5;5.3;;;;;;;28.76;49.5;;;;;
2023/09/10 13:42:53;;;;;;;;;;;;;;;;;;;;;
2023/09/10 13:53:53;;;;;;;9.3;5.3;;;;;;;28.88;48.44;;;;;
2023/09/10 14:03:53;;;;;;;;;;;;;;;;;;;;;
2023/09/10 14:13:53;;;;;;;9.3;5.3;;;;;;;29.35;52.68;;;;;
2023/09/10 14:24:53;;;;;;;7.7;5;;;;;;;29.5;50.56;;;;;
2023/09/10 14:34:53;;;;;;;7.7;5;;;;;;;29.65;46.42;;;;;
2023/09/10 14:45:53;;;;;;;7.7;5;;;;;;;29.47;47.84;;;;;
2023/09/10 14:55:53;;;;;;;7.4;5.6;;;;;;;29.87;47.57;;;;;
2023/09/10 15:05:53;;;;;;;7.4;5.6;;;;;;;30.34;48.53;;;;;
2023/09/10 15:16:54;;;;;;;7.1;5;;;;;;;32.69;44.9;;;;;
2023/09/10 15:27:53;;;;;;;7.1;5;;;;;;;34.32;38.93;;;;;
2023/09/10 15:38:53;;;;;;;7.1;5;;;;;;;35.01;39.03;;;;;
2023/09/10 15:48:53;;;;;;;9.1;6;;;;;;;35.14;38.6;;;;;
2023/09/10 15:59:53;;;;;;;9.1;6;;;;;;;35.61;37.47;;;;;
2023/09/10 16:09:53;;;;;;;9.1;6;;;;;;;35.26;41.92;;;;;
2023/09/10 16:20:53;;;;;;;9.3;6.3;;;;;;;34.63;41.08;;;;;
2023/09/10 16:31:53;;;;;;;9.3;6.3;;;;;;;33.54;42.45;;;;;
2023/09/10 16:42:53;;;;;;;9.3;6.3;;;;;;;30.38;49.17;;;;;
2023/09/10 16:52:53;;;;;;;11.4;8.5;;;;;;;28.36;54.32;;;;;
2023/09/10 17:02:53;;;;;;;;;;;;;;;;;;;;;
2023/09/10 17:12:53;;;;;;;11.4;8.5;;;;;;;25.22;63.25;;;;;
2023/09/10 17:22:53;;;;;;;12.6;8.6;;;;;;;24.07;68.37;;;;;
2023/09/10 17:33:53;;;;;;;12.6;8.6;;;;;;;23.27;69.12;;;;;
2023/09/10 17:43:53;;;;;;;12.6;8.6;;;;;;;22.74;70.08;;;;;
2023/09/10 17:54:53;;;;;;;12.4;7.7;;;;;;;22.14;71.37;;;;;
2023/09/10 18:04:53;;;;;;;12.4;7.7;;;;;;;21.71;72.54;;;;;
2023/09/10 18:14:53;;;;;;;12.4;7.7;;;;;;;21.37;73.53;;;;;
2023/09/10 18:25:53;;;;;;;11.6;8.5;;;;;;;21.02;74.88;;;;;
2023/09/10 18:35:53;;;;;;;11.6;8.5;;;;;;;20.81;75.17;;;;;
2023/09/10 18:46:53;;;;;;;11.6;8.5;;;;;;;20.46;75.67;;;;;
2023/09/10 18:56:53;;;;;;;11.4;7.1;;;;;;;20.13;76.75;;;;;
2023/09/10 19:07:53;;;;;;;11.4;7.1;;;;;;;19.76;77.13;;;;;
2023/09/10 19:17:53;;;;;;;15;8.7;;;;;;;19.41;78.07;;;;;
2023/09/10 19:28:53;;;;;;;15;8.7;;;;;;;19.1;79.01;;;;;
2023/09/10 19:38:53;;;;;;;15;8.7;;;;;;;18.82;80.07;;;;;
2023/09/10 19:48:53;;;;;;;14.1;10.4;;;;;;;18.59;80.94;;;;;
2023/09/10 19:59:53;;;;;;;14.1;10.4;;;;;;;18.4;82.62;;;;;
2023/09/10 20:10:53;;;;;;;14.1;10.4;;;;;;;18.24;83.12;;;;;
2023/09/10 20:21:53;;;;;;;15.2;11.9;;;;;;;18.04;83.73;;;;;
2023/09/10 20:32:53;;;;;;;15.2;11.9;;;;;;;17.85;84.76;;;;;
2023/09/10 20:42:53;;;;;;;15.2;11.9;;;;;;;17.73;85.15;;;;;
2023/09/10 20:53:53;;;;;;;15.1;13.1;;;;;;;17.58;86.17;;;;;
2023/09/10 21:03:53;;;;;;;15.1;13.1;;;;;;;17.45;87.21;;;;;
2023/09/10 21:14:53;;;;;;;15.1;13.1;;;;;;;17.39;88.12;;;;;
2023/09/10 21:24:53;;;;;;;17.7;12.5;;;;;;;17.34;88.64;;;;;
2023/09/10 21:34:53;;;;;;;17.7;12.5;;;;;;;17.23;88.26;;;;;
2023/09/10 21:45:53;;;;;;;17.7;12.5;;;;;;;17.23;88.3;;;;;
2023/09/10 21:55:53;;;;;;;15.1;11.1;;;;;;;17.15;88.82;;;;;
2023/09/10 22:06:53;;;;;;;15.1;11.1;;;;;;;17.03;88.88;;;;;
2023/09/10 22:16:53;;;;;;;15.1;11.1;;;;;;;16.91;88.34;;;;;
2023/09/10 22:27:53;;;;;;;15.2;11.7;;;;;;;16.92;89.08;;;;;
2023/09/10 22:38:55;;;;;;;15.2;11.7;;;;;;;16.88;88.84;;;;;
2023/09/10 22:48:53;;;;;;;16.8;12.1;;;;;;;16.76;88.58;;;;;
2023/09/10 22:58:53;;;;;;;16.8;12.1;;;;;;;16.67;89.03;;;;;
2023/09/10 23:08:53;;;;;;;16.8;12.1;;;;;;;16.57;89.53;;;;;
2023/09/10 23:18:53;;;;;;;16.8;11.4;;;;;;;16.49;90.09;;;;;
2023/09/10 23:28:53;;;;;;;16.8;11.4;;;;;;;16.41;90.58;;;;;
2023/09/10 23:39:53;;;;;;;16.8;11.4;;;;;;;16.34;90.53;;;;;
2023/09/10 23:49:53;;;;;;;14.7;12.1;;;;;;;16.25;90.27;;;;;
2023/09/10 23:59:53;;;;;;;14.7;12.1;;;;;;;16.25;91.33;;;;;
